Washington, District of Columbia
Traffic Map
Current Weather Conditions
Washington, District of Columbia
Broken Clouds
Broken Clouds
24°
Feels Like: 24°
Wind Chill: 24° Ceiling: 20000
Heat Index: 24° Visibility: 10mi
Dew Point: 17° Wind: 5mph
Humidity: 66% Direction: 190° (S)
Pressure: 29.96in Gusts: 0mph
Raw Report DataKDCA 202352Z 19004KT 10SM SCT060CB SCT110 BKN200 24/17 A2996 RMK AO2 SLP146 CB N-S AND OHD MOV SE CBMAM N-S AND OHD MOV SE CB DSNT W-SW MOV SE 60026 T02390172 10317 20233 50000
Traffic Incident Summary
Active as of:
Severity:
Category:
InformationThere was an issue retrieving the traffic information for this location. Please try a different location or try again shortly.
Advertisements
Track Severe Weather on mobile